sensor_id;sensor_type;location;lat;lon;timestamp;P1;durP1;ratioP1;P2;durP2;ratioP2
18217;SDS011;9234;49.344;11.120;2022-09-27T00:01:16;4.55;;;1.90;;
18217;SDS011;9234;49.344;11.120;2022-09-27T00:03:45;3.25;;;1.85;;
18217;SDS011;9234;49.344;11.120;2022-09-27T00:06:13;4.78;;;2.45;;
18217;SDS011;9234;49.344;11.120;2022-09-27T00:08:48;3.28;;;2.05;;
18217;SDS011;9234;49.344;11.120;2022-09-27T00:11:19;2.50;;;2.17;;
18217;SDS011;9234;49.344;11.120;2022-09-27T00:13:54;3.45;;;2.10;;
18217;SDS011;9234;49.344;11.120;2022-09-27T00:16:26;3.05;;;1.85;;
18217;SDS011;9234;49.344;11.120;2022-09-27T00:18:57;4.75;;;2.00;;
18217;SDS011;9234;49.344;11.120;2022-09-27T00:21:27;2.97;;;1.98;;
18217;SDS011;9234;49.344;11.120;2022-09-27T00:23:57;2.53;;;2.33;;
18217;SDS011;9234;49.344;11.120;2022-09-27T00:26:26;2.65;;;2.22;;
18217;SDS011;9234;49.344;11.120;2022-09-27T00:28:55;3.70;;;1.90;;
18217;SDS011;9234;49.344;11.120;2022-09-27T00:31:26;3.08;;;2.63;;
18217;SDS011;9234;49.344;11.120;2022-09-27T00:33:57;5.55;;;2.85;;
18217;SDS011;9234;49.344;11.120;2022-09-27T00:36:28;3.25;;;2.47;;
18217;SDS011;9234;49.344;11.120;2022-09-27T00:38:58;5.22;;;2.40;;
18217;SDS011;9234;49.344;11.120;2022-09-27T00:41:28;3.50;;;2.40;;
18217;SDS011;9234;49.344;11.120;2022-09-27T00:44:00;4.13;;;2.60;;
18217;SDS011;9234;49.344;11.120;2022-09-27T00:46:34;6.10;;;2.28;;
18217;SDS011;9234;49.344;11.120;2022-09-27T00:49:16;3.38;;;2.22;;
18217;SDS011;9234;49.344;11.120;2022-09-27T00:51:51;2.28;;;1.92;;
18217;SDS011;9234;49.344;11.120;2022-09-27T00:54:23;2.35;;;2.03;;
18217;SDS011;9234;49.344;11.120;2022-09-27T00:56:55;1.92;;;1.73;;
18217;SDS011;9234;49.344;11.120;2022-09-27T00:59:25;2.28;;;1.92;;
18217;SDS011;9234;49.344;11.120;2022-09-27T01:02:02;2.20;;;1.92;;
18217;SDS011;9234;49.344;11.120;2022-09-27T01:04:33;2.35;;;1.73;;
18217;SDS011;9234;49.344;11.120;2022-09-27T01:07:05;3.75;;;1.95;;
18217;SDS011;9234;49.344;11.120;2022-09-27T01:09:34;3.08;;;1.77;;
18217;SDS011;9234;49.344;11.120;2022-09-27T01:12:04;3.33;;;1.50;;
18217;SDS011;9234;49.344;11.120;2022-09-27T01:14:50;1.50;;;1.40;;
18217;SDS011;9234;49.344;11.120;2022-09-27T01:17:43;1.88;;;1.40;;
18217;SDS011;9234;49.344;11.120;2022-09-27T01:23:51;3.65;;;1.63;;
18217;SDS011;9234;49.344;11.120;2022-09-27T01:27:00;3.78;;;1.40;;
18217;SDS011;9234;49.344;11.120;2022-09-27T01:30:18;1.83;;;1.20;;
18217;SDS011;9234;49.344;11.120;2022-09-27T01:32:53;1.67;;;1.08;;
18217;SDS011;9234;49.344;11.120;2022-09-27T01:35:49;3.22;;;1.30;;
18217;SDS011;9234;49.344;11.120;2022-09-27T01:38:40;2.25;;;1.55;;
18217;SDS011;9234;49.344;11.120;2022-09-27T01:41:21;1.55;;;1.15;;
18217;SDS011;9234;49.344;11.120;2022-09-27T01:44:19;1.38;;;1.00;;
18217;SDS011;9234;49.344;11.120;2022-09-27T01:47:08;2.58;;;0.93;;
18217;SDS011;9234;49.344;11.120;2022-09-27T01:49:52;1.35;;;0.75;;
18217;SDS011;9234;49.344;11.120;2022-09-27T01:52:29;1.13;;;0.80;;
18217;SDS011;9234;49.344;11.120;2022-09-27T01:55:05;1.48;;;1.02;;
18217;SDS011;9234;49.344;11.120;2022-09-27T01:57:58;2.22;;;0.93;;
18217;SDS011;9234;49.344;11.120;2022-09-27T02:00:37;0.60;;;0.60;;
18217;SDS011;9234;49.344;11.120;2022-09-27T02:03:13;1.50;;;0.80;;
18217;SDS011;9234;49.344;11.120;2022-09-27T02:06:06;1.42;;;0.73;;
18217;SDS011;9234;49.344;11.120;2022-09-27T02:09:01;0.85;;;0.70;;
18217;SDS011;9234;49.344;11.120;2022-09-27T02:11:57;1.27;;;0.95;;
18217;SDS011;9234;49.344;11.120;2022-09-27T02:14:32;1.35;;;1.00;;
18217;SDS011;9234;49.344;11.120;2022-09-27T02:17:09;1.67;;;0.70;;
18217;SDS011;9234;49.344;11.120;2022-09-27T02:19:52;1.30;;;1.00;;
18217;SDS011;9234;49.344;11.120;2022-09-27T02:22:38;1.35;;;0.82;;
18217;SDS011;9234;49.344;11.120;2022-09-27T02:25:15;0.90;;;0.80;;
18217;SDS011;9234;49.344;11.120;2022-09-27T02:27:55;3.47;;;1.10;;
18217;SDS011;9234;49.344;11.120;2022-09-27T02:30:34;1.70;;;0.80;;
18217;SDS011;9234;49.344;11.120;2022-09-27T02:33:17;1.88;;;0.88;;
18217;SDS011;9234;49.344;11.120;2022-09-27T02:35:52;1.33;;;0.80;;
18217;SDS011;9234;49.344;11.120;2022-09-27T02:38:20;2.35;;;0.77;;
18217;SDS011;9234;49.344;11.120;2022-09-27T02:40:51;1.15;;;0.80;;
18217;SDS011;9234;49.344;11.120;2022-09-27T02:43:20;0.63;;;0.50;;
18217;SDS011;9234;49.344;11.120;2022-09-27T02:45:57;1.07;;;0.70;;
18217;SDS011;9234;49.344;11.120;2022-09-27T02:48:43;1.58;;;0.88;;
18217;SDS011;9234;49.344;11.120;2022-09-27T02:51:28;0.98;;;0.73;;
18217;SDS011;9234;49.344;11.120;2022-09-27T02:54:12;3.47;;;0.88;;
18217;SDS011;9234;49.344;11.120;2022-09-27T02:57:03;3.60;;;0.70;;
18217;SDS011;9234;49.344;11.120;2022-09-27T03:00:07;1.00;;;0.90;;
18217;SDS011;9234;49.344;11.120;2022-09-27T03:02:49;3.08;;;0.80;;
18217;SDS011;9234;49.344;11.120;2022-09-27T03:05:32;0.63;;;0.60;;
18217;SDS011;9234;49.344;11.120;2022-09-27T03:08:08;3.13;;;0.87;;
18217;SDS011;9234;49.344;11.120;2022-09-27T03:10:39;2.67;;;0.98;;
18217;SDS011;9234;49.344;11.120;2022-09-27T03:13:07;2.15;;;0.98;;
18217;SDS011;9234;49.344;11.120;2022-09-27T03:15:36;10.35;;;1.05;;
18217;SDS011;9234;49.344;11.120;2022-09-27T03:18:04;1.65;;;0.93;;
18217;SDS011;9234;49.344;11.120;2022-09-27T03:20:52;1.15;;;0.98;;
18217;SDS011;9234;49.344;11.120;2022-09-27T03:23:25;3.63;;;1.27;;
18217;SDS011;9234;49.344;11.120;2022-09-27T03:25:53;3.13;;;1.20;;
18217;SDS011;9234;49.344;11.120;2022-09-27T03:28:22;4.97;;;1.25;;
18217;SDS011;9234;49.344;11.120;2022-09-27T03:30:51;1.73;;;1.30;;
18217;SDS011;9234;49.344;11.120;2022-09-27T03:33:38;1.55;;;1.30;;
18217;SDS011;9234;49.344;11.120;2022-09-27T03:36:09;2.50;;;1.40;;
18217;SDS011;9234;49.344;11.120;2022-09-27T03:38:39;1.42;;;1.20;;
18217;SDS011;9234;49.344;11.120;2022-09-27T03:41:11;3.85;;;1.25;;
18217;SDS011;9234;49.344;11.120;2022-09-27T03:43:40;1.48;;;1.15;;
18217;SDS011;9234;49.344;11.120;2022-09-27T03:46:08;1.25;;;1.10;;
18217;SDS011;9234;49.344;11.120;2022-09-27T03:48:37;1.23;;;1.13;;
18217;SDS011;9234;49.344;11.120;2022-09-27T03:51:05;1.27;;;0.98;;
18217;SDS011;9234;49.344;11.120;2022-09-27T03:53:34;1.77;;;1.10;;
18217;SDS011;9234;49.344;11.120;2022-09-27T03:56:03;3.00;;;0.95;;
18217;SDS011;9234;49.344;11.120;2022-09-27T03:58:32;1.70;;;1.00;;
18217;SDS011;9234;49.344;11.120;2022-09-27T04:01:01;2.45;;;0.90;;
18217;SDS011;9234;49.344;11.120;2022-09-27T04:03:32;1.02;;;0.93;;
18217;SDS011;9234;49.344;11.120;2022-09-27T04:06:19;1.42;;;0.73;;
18217;SDS011;9234;49.344;11.120;2022-09-27T04:08:48;0.98;;;0.77;;
18217;SDS011;9234;49.344;11.120;2022-09-27T04:11:18;1.42;;;1.02;;
18217;SDS011;9234;49.344;11.120;2022-09-27T04:13:48;2.50;;;0.90;;
18217;SDS011;9234;49.344;11.120;2022-09-27T04:16:19;3.00;;;0.77;;
18217;SDS011;9234;49.344;11.120;2022-09-27T04:19:07;0.63;;;0.60;;
18217;SDS011;9234;49.344;11.120;2022-09-27T04:21:36;0.57;;;0.47;;
18217;SDS011;9234;49.344;11.120;2022-09-27T04:24:07;1.33;;;0.70;;
18217;SDS011;9234;49.344;11.120;2022-09-27T04:26:39;1.23;;;1.00;;
18217;SDS011;9234;49.344;11.120;2022-09-27T04:29:11;0.98;;;0.68;;
18217;SDS011;9234;49.344;11.120;2022-09-27T04:31:46;2.78;;;0.80;;
18217;SDS011;9234;49.344;11.120;2022-09-27T04:34:52;0.80;;;0.70;;
18217;SDS011;9234;49.344;11.120;2022-09-27T04:37:38;3.07;;;0.87;;
18217;SDS011;9234;49.344;11.120;2022-09-27T04:40:09;1.00;;;0.63;;
18217;SDS011;9234;49.344;11.120;2022-09-27T04:42:39;1.98;;;0.75;;
18217;SDS011;9234;49.344;11.120;2022-09-27T04:45:08;1.13;;;0.65;;
18217;SDS011;9234;49.344;11.120;2022-09-27T04:47:41;2.80;;;0.65;;
18217;SDS011;9234;49.344;11.120;2022-09-27T04:50:10;1.30;;;0.65;;
18217;SDS011;9234;49.344;11.120;2022-09-27T04:52:39;2.20;;;0.63;;
18217;SDS011;9234;49.344;11.120;2022-09-27T04:55:08;2.20;;;0.50;;
18217;SDS011;9234;49.344;11.120;2022-09-27T04:57:38;1.90;;;0.47;;
18217;SDS011;9234;49.344;11.120;2022-09-27T05:00:08;1.40;;;0.30;;
18217;SDS011;9234;49.344;11.120;2022-09-27T05:02:38;1.08;;;0.30;;
18217;SDS011;9234;49.344;11.120;2022-09-27T05:05:32;0.80;;;0.23;;
18217;SDS011;9234;49.344;11.120;2022-09-27T05:08:00;0.55;;;0.30;;
18217;SDS011;9234;49.344;11.120;2022-09-27T05:10:46;1.38;;;0.70;;
18217;SDS011;9234;49.344;11.120;2022-09-27T05:13:16;3.03;;;0.67;;
18217;SDS011;9234;49.344;11.120;2022-09-27T05:15:44;1.65;;;0.40;;
18217;SDS011;9234;49.344;11.120;2022-09-27T05:18:36;1.33;;;0.60;;
18217;SDS011;9234;49.344;11.120;2022-09-27T05:21:36;0.47;;;0.30;;
18217;SDS011;9234;49.344;11.120;2022-09-27T05:24:04;1.05;;;0.60;;
18217;SDS011;9234;49.344;11.120;2022-09-27T05:26:33;2.00;;;0.40;;
18217;SDS011;9234;49.344;11.120;2022-09-27T05:29:04;1.20;;;0.50;;
18217;SDS011;9234;49.344;11.120;2022-09-27T05:31:32;1.17;;;0.60;;
18217;SDS011;9234;49.344;11.120;2022-09-27T05:34:01;1.08;;;0.50;;
18217;SDS011;9234;49.344;11.120;2022-09-27T05:36:35;1.43;;;0.90;;
18217;SDS011;9234;49.344;11.120;2022-09-27T05:39:03;2.93;;;1.10;;
18217;SDS011;9234;49.344;11.120;2022-09-27T05:41:33;1.05;;;0.90;;
18217;SDS011;9234;49.344;11.120;2022-09-27T05:44:03;1.58;;;1.08;;
18217;SDS011;9234;49.344;11.120;2022-09-27T05:46:34;3.70;;;2.43;;
18217;SDS011;9234;49.344;11.120;2022-09-27T05:49:04;2.77;;;1.30;;
18217;SDS011;9234;49.344;11.120;2022-09-27T05:51:33;2.77;;;1.97;;
18217;SDS011;9234;49.344;11.120;2022-09-27T05:54:01;2.92;;;1.85;;
18217;SDS011;9234;49.344;11.120;2022-09-27T05:56:30;2.67;;;1.40;;
18217;SDS011;9234;49.344;11.120;2022-09-27T05:59:18;3.85;;;1.27;;
18217;SDS011;9234;49.344;11.120;2022-09-27T06:02:09;2.00;;;0.90;;
18217;SDS011;9234;49.344;11.120;2022-09-27T06:04:57;2.17;;;1.10;;
18217;SDS011;9234;49.344;11.120;2022-09-27T06:07:44;1.37;;;0.70;;
18217;SDS011;9234;49.344;11.120;2022-09-27T06:10:20;2.92;;;1.17;;
18217;SDS011;9234;49.344;11.120;2022-09-27T06:12:48;1.50;;;0.70;;
18217;SDS011;9234;49.344;11.120;2022-09-27T06:15:48;2.10;;;0.90;;
18217;SDS011;9234;49.344;11.120;2022-09-27T06:18:19;5.37;;;1.10;;
18217;SDS011;9234;49.344;11.120;2022-09-27T06:20:49;3.47;;;1.40;;
18217;SDS011;9234;49.344;11.120;2022-09-27T06:23:18;2.95;;;0.80;;
18217;SDS011;9234;49.344;11.120;2022-09-27T06:25:49;2.70;;;1.30;;
18217;SDS011;9234;49.344;11.120;2022-09-27T06:28:22;2.28;;;1.15;;
18217;SDS011;9234;49.344;11.120;2022-09-27T06:30:56;3.07;;;1.10;;
18217;SDS011;9234;49.344;11.120;2022-09-27T06:33:49;3.77;;;1.60;;
18217;SDS011;9234;49.344;11.120;2022-09-27T06:36:17;2.60;;;1.70;;
18217;SDS011;9234;49.344;11.120;2022-09-27T06:38:46;2.93;;;1.00;;
18217;SDS011;9234;49.344;11.120;2022-09-27T06:41:19;5.15;;;1.10;;
18217;SDS011;9234;49.344;11.120;2022-09-27T06:43:54;1.52;;;0.98;;
18217;SDS011;9234;49.344;11.120;2022-09-27T06:46:43;4.78;;;1.10;;
18217;SDS011;9234;49.344;11.120;2022-09-27T06:49:28;4.47;;;1.10;;
18217;SDS011;9234;49.344;11.120;2022-09-27T06:51:58;2.07;;;1.07;;
18217;SDS011;9234;49.344;11.120;2022-09-27T06:54:27;3.53;;;0.87;;
18217;SDS011;9234;49.344;11.120;2022-09-27T06:56:55;3.73;;;1.10;;
18217;SDS011;9234;49.344;11.120;2022-09-27T06:59:28;2.38;;;0.93;;
18217;SDS011;9234;49.344;11.120;2022-09-27T07:02:34;1.40;;;0.80;;
18217;SDS011;9234;49.344;11.120;2022-09-27T07:05:36;1.42;;;0.50;;
18217;SDS011;9234;49.344;11.120;2022-09-27T07:08:36;1.95;;;0.60;;
18217;SDS011;9234;49.344;11.120;2022-09-27T07:11:05;3.08;;;0.85;;
18217;SDS011;9234;49.344;11.120;2022-09-27T07:13:34;1.90;;;1.00;;
18217;SDS011;9234;49.344;11.120;2022-09-27T07:16:09;1.33;;;0.53;;
18217;SDS011;9234;49.344;11.120;2022-09-27T07:18:41;1.80;;;0.60;;
18217;SDS011;9234;49.344;11.120;2022-09-27T07:21:10;2.03;;;0.70;;
18217;SDS011;9234;49.344;11.120;2022-09-27T07:23:39;1.48;;;0.77;;
18217;SDS011;9234;49.344;11.120;2022-09-27T07:26:09;1.45;;;0.70;;
18217;SDS011;9234;49.344;11.120;2022-09-27T07:28:38;0.38;;;0.38;;
18217;SDS011;9234;49.344;11.120;2022-09-27T07:31:11;0.68;;;0.52;;
18217;SDS011;9234;49.344;11.120;2022-09-27T07:33:41;1.57;;;0.60;;
18217;SDS011;9234;49.344;11.120;2022-09-27T07:36:10;2.97;;;0.50;;
18217;SDS011;9234;49.344;11.120;2022-09-27T07:38:42;0.40;;;0.32;;
18217;SDS011;9234;49.344;11.120;2022-09-27T07:41:12;0.50;;;0.40;;
18217;SDS011;9234;49.344;11.120;2022-09-27T07:43:43;1.58;;;0.50;;
18217;SDS011;9234;49.344;11.120;2022-09-27T07:46:12;0.80;;;0.43;;
18217;SDS011;9234;49.344;11.120;2022-09-27T07:49:00;1.57;;;0.30;;
18217;SDS011;9234;49.344;11.120;2022-09-27T07:51:39;0.87;;;0.40;;
18217;SDS011;9234;49.344;11.120;2022-09-27T07:54:26;0.30;;;0.25;;
18217;SDS011;9234;49.344;11.120;2022-09-27T07:57:15;1.27;;;0.43;;
18217;SDS011;9234;49.344;11.120;2022-09-27T07:59:47;1.13;;;0.30;;
18217;SDS011;9234;49.344;11.120;2022-09-27T08:02:18;0.70;;;0.50;;
18217;SDS011;9234;49.344;11.120;2022-09-27T08:04:50;1.23;;;0.30;;
18217;SDS011;9234;49.344;11.120;2022-09-27T08:07:19;0.33;;;0.33;;
18217;SDS011;9234;49.344;11.120;2022-09-27T08:09:51;0.70;;;0.30;;
18217;SDS011;9234;49.344;11.120;2022-09-27T08:12:20;1.17;;;0.20;;
18217;SDS011;9234;49.344;11.120;2022-09-27T08:14:49;0.30;;;0.30;;
18217;SDS011;9234;49.344;11.120;2022-09-27T08:17:19;0.68;;;0.30;;
18217;SDS011;9234;49.344;11.120;2022-09-27T08:20:12;0.57;;;0.40;;
18217;SDS011;9234;49.344;11.120;2022-09-27T08:23:01;0.90;;;0.40;;
18217;SDS011;9234;49.344;11.120;2022-09-27T08:25:34;3.72;;;0.43;;
18217;SDS011;9234;49.344;11.120;2022-09-27T08:28:21;1.77;;;0.40;;
18217;SDS011;9234;49.344;11.120;2022-09-27T08:31:01;0.50;;;0.20;;
18217;SDS011;9234;49.344;11.120;2022-09-27T08:33:30;0.95;;;0.73;;
18217;SDS011;9234;49.344;11.120;2022-09-27T08:36:10;0.30;;;0.30;;
18217;SDS011;9234;49.344;11.120;2022-09-27T08:38:39;2.10;;;0.28;;
18217;SDS011;9234;49.344;11.120;2022-09-27T08:41:11;0.40;;;0.20;;
18217;SDS011;9234;49.344;11.120;2022-09-27T08:43:51;0.20;;;0.20;;
18217;SDS011;9234;49.344;11.120;2022-09-27T08:46:44;2.15;;;0.40;;
18217;SDS011;9234;49.344;11.120;2022-09-27T08:49:26;0.38;;;0.13;;
18217;SDS011;9234;49.344;11.120;2022-09-27T08:52:11;1.00;;;0.20;;
18217;SDS011;9234;49.344;11.120;2022-09-27T08:54:46;1.48;;;0.40;;
18217;SDS011;9234;49.344;11.120;2022-09-27T08:57:17;0.93;;;0.28;;
18217;SDS011;9234;49.344;11.120;2022-09-27T08:59:59;0.40;;;0.20;;
18217;SDS011;9234;49.344;11.120;2022-09-27T09:02:34;2.38;;;0.40;;
18217;SDS011;9234;49.344;11.120;2022-09-27T09:05:05;2.00;;;0.60;;
18217;SDS011;9234;49.344;11.120;2022-09-27T09:07:46;0.50;;;0.50;;
18217;SDS011;9234;49.344;11.120;2022-09-27T09:10:48;0.50;;;0.30;;
18217;SDS011;9234;49.344;11.120;2022-09-27T09:13:55;0.30;;;0.20;;
18217;SDS011;9234;49.344;11.120;2022-09-27T09:16:52;0.77;;;0.40;;
18217;SDS011;9234;49.344;11.120;2022-09-27T09:19:42;0.88;;;0.30;;
18217;SDS011;9234;49.344;11.120;2022-09-27T09:22:57;3.25;;;0.50;;
18217;SDS011;9234;49.344;11.120;2022-09-27T09:25:46;1.48;;;1.10;;
18217;SDS011;9234;49.344;11.120;2022-09-27T09:28:29;0.95;;;0.80;;
18217;SDS011;9234;49.344;11.120;2022-09-27T09:31:18;0.55;;;0.55;;
18217;SDS011;9234;49.344;11.120;2022-09-27T09:34:03;0.98;;;0.88;;
18217;SDS011;9234;49.344;11.120;2022-09-27T09:36:43;2.25;;;0.65;;
18217;SDS011;9234;49.344;11.120;2022-09-27T09:39:18;0.80;;;0.60;;
18217;SDS011;9234;49.344;11.120;2022-09-27T09:42:00;1.75;;;1.02;;
18217;SDS011;9234;49.344;11.120;2022-09-27T09:44:40;2.42;;;1.58;;
18217;SDS011;9234;49.344;11.120;2022-09-27T09:47:18;0.50;;;0.43;;
18217;SDS011;9234;49.344;11.120;2022-09-27T09:49:56;2.55;;;0.90;;
18217;SDS011;9234;49.344;11.120;2022-09-27T09:52:33;1.88;;;0.90;;
18217;SDS011;9234;49.344;11.120;2022-09-27T09:55:14;0.73;;;0.40;;
18217;SDS011;9234;49.344;11.120;2022-09-27T09:57:53;1.02;;;0.60;;
18217;SDS011;9234;49.344;11.120;2022-09-27T10:00:41;0.73;;;0.52;;
18217;SDS011;9234;49.344;11.120;2022-09-27T10:03:12;0.75;;;0.75;;
18217;SDS011;9234;49.344;11.120;2022-09-27T10:05:41;1.08;;;0.70;;
18217;SDS011;9234;49.344;11.120;2022-09-27T10:08:12;1.70;;;0.70;;
18217;SDS011;9234;49.344;11.120;2022-09-27T10:10:54;2.42;;;0.70;;
18217;SDS011;9234;49.344;11.120;2022-09-27T10:13:45;0.73;;;0.73;;
18217;SDS011;9234;49.344;11.120;2022-09-27T10:16:15;0.50;;;0.50;;
18217;SDS011;9234;49.344;11.120;2022-09-27T10:18:47;1.23;;;0.60;;
18217;SDS011;9234;49.344;11.120;2022-09-27T10:21:23;1.02;;;0.70;;
18217;SDS011;9234;49.344;11.120;2022-09-27T10:24:00;2.17;;;0.50;;
18217;SDS011;9234;49.344;11.120;2022-09-27T10:27:08;1.40;;;0.90;;
18217;SDS011;9234;49.344;11.120;2022-09-27T10:29:38;0.35;;;0.30;;
18217;SDS011;9234;49.344;11.120;2022-09-27T10:32:20;1.10;;;0.65;;
18217;SDS011;9234;49.344;11.120;2022-09-27T10:35:31;1.50;;;0.73;;
18217;SDS011;9234;49.344;11.120;2022-09-27T10:38:18;0.30;;;0.28;;
18217;SDS011;9234;49.344;11.120;2022-09-27T10:40:56;2.20;;;0.50;;
18217;SDS011;9234;49.344;11.120;2022-09-27T10:43:43;3.63;;;0.93;;
18217;SDS011;9234;49.344;11.120;2022-09-27T10:46:24;1.60;;;0.93;;
18217;SDS011;9234;49.344;11.120;2022-09-27T10:49:14;0.63;;;0.63;;
18217;SDS011;9234;49.344;11.120;2022-09-27T10:51:51;1.20;;;0.85;;
18217;SDS011;9234;49.344;11.120;2022-09-27T10:54:22;2.00;;;0.70;;
18217;SDS011;9234;49.344;11.120;2022-09-27T10:56:55;0.77;;;0.43;;
18217;SDS011;9234;49.344;11.120;2022-09-27T10:59:28;1.08;;;0.60;;
18217;SDS011;9234;49.344;11.120;2022-09-27T11:02:01;1.85;;;0.70;;
18217;SDS011;9234;49.344;11.120;2022-09-27T11:04:37;1.88;;;0.80;;
18217;SDS011;9234;49.344;11.120;2022-09-27T11:07:13;0.60;;;0.40;;
18217;SDS011;9234;49.344;11.120;2022-09-27T11:09:53;1.33;;;0.50;;
18217;SDS011;9234;49.344;11.120;2022-09-27T11:12:30;1.65;;;0.50;;
18217;SDS011;9234;49.344;11.120;2022-09-27T11:15:02;0.30;;;0.30;;
18217;SDS011;9234;49.344;11.120;2022-09-27T11:17:43;0.80;;;0.50;;
18217;SDS011;9234;49.344;11.120;2022-09-27T11:20:24;0.22;;;0.22;;
18217;SDS011;9234;49.344;11.120;2022-09-27T11:23:07;1.05;;;0.43;;
18217;SDS011;9234;49.344;11.120;2022-09-27T11:26:04;0.73;;;0.60;;
18217;SDS011;9234;49.344;11.120;2022-09-27T11:28:55;1.45;;;1.00;;
18217;SDS011;9234;49.344;11.120;2022-09-27T11:32:13;1.48;;;0.60;;
18217;SDS011;9234;49.344;11.120;2022-09-27T11:35:01;1.20;;;0.40;;
18217;SDS011;9234;49.344;11.120;2022-09-27T11:37:55;0.32;;;0.32;;
18217;SDS011;9234;49.344;11.120;2022-09-27T11:40:43;0.90;;;0.20;;
18217;SDS011;9234;49.344;11.120;2022-09-27T11:43:35;1.15;;;0.30;;
18217;SDS011;9234;49.344;11.120;2022-09-27T11:46:31;0.45;;;0.30;;
18217;SDS011;9234;49.344;11.120;2022-09-27T11:49:14;0.20;;;0.20;;
18217;SDS011;9234;49.344;11.120;2022-09-27T11:52:19;1.35;;;0.30;;
18217;SDS011;9234;49.344;11.120;2022-09-27T11:55:12;3.20;;;0.52;;
18217;SDS011;9234;49.344;11.120;2022-09-27T11:57:52;1.35;;;0.50;;
18217;SDS011;9234;49.344;11.120;2022-09-27T12:00:34;1.02;;;0.50;;
18217;SDS011;9234;49.344;11.120;2022-09-27T12:03:25;0.80;;;0.47;;
18217;SDS011;9234;49.344;11.120;2022-09-27T12:06:18;0.35;;;0.35;;
18217;SDS011;9234;49.344;11.120;2022-09-27T12:08:56;0.52;;;0.30;;
18217;SDS011;9234;49.344;11.120;2022-09-27T12:11:35;0.75;;;0.40;;
18217;SDS011;9234;49.344;11.120;2022-09-27T12:14:14;0.40;;;0.30;;
18217;SDS011;9234;49.344;11.120;2022-09-27T12:16:53;2.35;;;0.60;;
18217;SDS011;9234;49.344;11.120;2022-09-27T12:19:25;0.50;;;0.38;;
18217;SDS011;9234;49.344;11.120;2022-09-27T12:22:08;0.95;;;0.30;;
18217;SDS011;9234;49.344;11.120;2022-09-27T12:24:44;1.33;;;0.40;;
18217;SDS011;9234;49.344;11.120;2022-09-27T12:27:53;0.65;;;0.30;;
18217;SDS011;9234;49.344;11.120;2022-09-27T12:30:27;0.30;;;0.30;;
18217;SDS011;9234;49.344;11.120;2022-09-27T12:33:03;1.23;;;0.40;;
18217;SDS011;9234;49.344;11.120;2022-09-27T12:35:41;0.80;;;0.30;;
18217;SDS011;9234;49.344;11.120;2022-09-27T12:38:19;0.57;;;0.28;;
18217;SDS011;9234;49.344;11.120;2022-09-27T12:41:04;0.70;;;0.38;;
18217;SDS011;9234;49.344;11.120;2022-09-27T12:43:50;0.45;;;0.30;;
18217;SDS011;9234;49.344;11.120;2022-09-27T12:46:38;1.23;;;0.70;;
18217;SDS011;9234;49.344;11.120;2022-09-27T12:49:23;0.43;;;0.40;;
18217;SDS011;9234;49.344;11.120;2022-09-27T12:52:04;1.50;;;0.38;;
18217;SDS011;9234;49.344;11.120;2022-09-27T12:54:53;2.85;;;0.45;;
18217;SDS011;9234;49.344;11.120;2022-09-27T12:57:58;0.57;;;0.50;;
18217;SDS011;9234;49.344;11.120;2022-09-27T13:00:51;0.82;;;0.70;;
18217;SDS011;9234;49.344;11.120;2022-09-27T13:03:30;0.95;;;0.50;;
18217;SDS011;9234;49.344;11.120;2022-09-27T13:06:33;1.63;;;0.57;;
18217;SDS011;9234;49.344;11.120;2022-09-27T13:09:41;0.90;;;0.60;;
18217;SDS011;9234;49.344;11.120;2022-09-27T13:12:41;1.25;;;0.50;;
18217;SDS011;9234;49.344;11.120;2022-09-27T13:15:18;1.67;;;0.60;;
18217;SDS011;9234;49.344;11.120;2022-09-27T13:17:55;0.95;;;0.50;;
18217;SDS011;9234;49.344;11.120;2022-09-27T13:20:38;2.83;;;0.80;;
18217;SDS011;9234;49.344;11.120;2022-09-27T13:26:47;0.55;;;0.55;;
18217;SDS011;9234;49.344;11.120;2022-09-27T13:29:28;1.90;;;0.95;;
18217;SDS011;9234;49.344;11.120;2022-09-27T13:35:20;1.30;;;0.90;;
18217;SDS011;9234;49.344;11.120;2022-09-27T13:37:59;2.15;;;0.98;;
18217;SDS011;9234;49.344;11.120;2022-09-27T13:40:40;3.03;;;0.88;;
18217;SDS011;9234;49.344;11.120;2022-09-27T13:43:27;2.17;;;1.25;;
18217;SDS011;9234;49.344;11.120;2022-09-27T13:46:45;2.60;;;1.55;;
18217;SDS011;9234;49.344;11.120;2022-09-27T13:49:22;1.25;;;0.70;;
18217;SDS011;9234;49.344;11.120;2022-09-27T13:52:19;1.38;;;0.80;;
18217;SDS011;9234;49.344;11.120;2022-09-27T13:55:36;1.08;;;0.90;;
18217;SDS011;9234;49.344;11.120;2022-09-27T14:01:38;2.13;;;0.90;;
18217;SDS011;9234;49.344;11.120;2022-09-27T14:04:15;0.70;;;0.40;;
18217;SDS011;9234;49.344;11.120;2022-09-27T14:06:48;1.38;;;0.80;;
18217;SDS011;9234;49.344;11.120;2022-09-27T14:09:24;1.45;;;0.70;;
18217;SDS011;9234;49.344;11.120;2022-09-27T14:12:09;0.68;;;0.40;;
18217;SDS011;9234;49.344;11.120;2022-09-27T14:14:44;1.05;;;0.40;;
18217;SDS011;9234;49.344;11.120;2022-09-27T14:17:17;1.42;;;0.60;;
18217;SDS011;9234;49.344;11.120;2022-09-27T14:19:47;0.98;;;0.60;;
18217;SDS011;9234;49.344;11.120;2022-09-27T14:22:17;3.45;;;0.47;;
18217;SDS011;9234;49.344;11.120;2022-09-27T14:24:55;3.70;;;0.50;;
18217;SDS011;9234;49.344;11.120;2022-09-27T14:27:28;1.65;;;0.50;;
18217;SDS011;9234;49.344;11.120;2022-09-27T14:30:26;1.48;;;0.50;;
18217;SDS011;9234;49.344;11.120;2022-09-27T14:33:25;0.73;;;0.30;;
18217;SDS011;9234;49.344;11.120;2022-09-27T14:36:06;1.50;;;0.50;;
18217;SDS011;9234;49.344;11.120;2022-09-27T14:39:12;2.55;;;0.63;;
18217;SDS011;9234;49.344;11.120;2022-09-27T14:41:48;1.95;;;0.50;;
18217;SDS011;9234;49.344;11.120;2022-09-27T14:44:17;1.55;;;1.00;;
18217;SDS011;9234;49.344;11.120;2022-09-27T14:47:06;1.38;;;0.50;;
18217;SDS011;9234;49.344;11.120;2022-09-27T14:49:44;0.70;;;0.40;;
18217;SDS011;9234;49.344;11.120;2022-09-27T14:52:17;2.60;;;0.50;;
18217;SDS011;9234;49.344;11.120;2022-09-27T14:54:58;0.60;;;0.40;;
18217;SDS011;9234;49.344;11.120;2022-09-27T14:57:30;0.30;;;0.25;;
18217;SDS011;9234;49.344;11.120;2022-09-27T15:00:08;0.50;;;0.38;;
18217;SDS011;9234;49.344;11.120;2022-09-27T15:02:45;1.88;;;0.40;;
18217;SDS011;9234;49.344;11.120;2022-09-27T15:05:16;1.80;;;0.90;;
18217;SDS011;9234;49.344;11.120;2022-09-27T15:07:48;0.47;;;0.30;;
18217;SDS011;9234;49.344;11.120;2022-09-27T15:10:18;0.75;;;0.17;;
18217;SDS011;9234;49.344;11.120;2022-09-27T15:12:52;5.03;;;0.70;;
18217;SDS011;9234;49.344;11.120;2022-09-27T15:15:25;2.20;;;0.43;;
18217;SDS011;9234;49.344;11.120;2022-09-27T15:17:57;3.30;;;2.10;;
18217;SDS011;9234;49.344;11.120;2022-09-27T15:20:27;4.38;;;3.20;;
18217;SDS011;9234;49.344;11.120;2022-09-27T15:23:02;1.00;;;0.30;;
18217;SDS011;9234;49.344;11.120;2022-09-27T15:25:32;3.15;;;1.83;;
18217;SDS011;9234;49.344;11.120;2022-09-27T15:28:05;7.40;;;4.65;;
18217;SDS011;9234;49.344;11.120;2022-09-27T15:30:47;1.70;;;1.40;;
18217;SDS011;9234;49.344;11.120;2022-09-27T15:33:22;1.77;;;1.13;;
18217;SDS011;9234;49.344;11.120;2022-09-27T15:35:55;1.20;;;1.10;;
18217;SDS011;9234;49.344;11.120;2022-09-27T15:38:30;1.45;;;1.00;;
18217;SDS011;9234;49.344;11.120;2022-09-27T15:41:05;0.90;;;0.60;;
18217;SDS011;9234;49.344;11.120;2022-09-27T15:43:40;0.40;;;0.40;;
18217;SDS011;9234;49.344;11.120;2022-09-27T15:46:28;3.85;;;0.40;;
18217;SDS011;9234;49.344;11.120;2022-09-27T15:49:25;2.85;;;0.30;;
18217;SDS011;9234;49.344;11.120;2022-09-27T15:52:00;0.82;;;0.40;;
18217;SDS011;9234;49.344;11.120;2022-09-27T15:54:32;0.93;;;0.60;;
18217;SDS011;9234;49.344;11.120;2022-09-27T15:57:02;0.75;;;0.75;;
18217;SDS011;9234;49.344;11.120;2022-09-27T15:59:33;2.83;;;2.00;;
18217;SDS011;9234;49.344;11.120;2022-09-27T16:02:05;3.50;;;2.00;;
18217;SDS011;9234;49.344;11.120;2022-09-27T16:04:41;0.85;;;0.85;;
18217;SDS011;9234;49.344;11.120;2022-09-27T16:07:10;2.50;;;1.02;;
18217;SDS011;9234;49.344;11.120;2022-09-27T16:09:41;1.08;;;0.82;;
18217;SDS011;9234;49.344;11.120;2022-09-27T16:12:10;1.40;;;0.70;;